Charco, Texas
Current Conditions -  °F | °C
As of 9:15 PM on Saturday 20 Dec 2014 (Local Time) from KBEA Reporting Station
Overcast Overcast  
Wind Chill: 54°   Ceiling: 1700
Heat Index: 54°   Visibility: 10mi
Dew Point: 51°   Wind: 3mph
Humidity: 90%   Direction: 130°SE
Pressure: 30.17"   Gusts: NA
Location:  28.6563°N, 97.4287°W
Report Text: KBEA 210315Z AUTO 13003KT 10SM OVC017 12/11 A3017 RMK AO2 T01230107
Loading
Personal Weather Stations






























Interactive Weather Map New forecast layout! Learn more

10-Day Weather Forecast

Advertisements
Track Severe Weather on mobile